Latest Weather Observations for Yarram Airport

IDV60801

Issued at 3:02 pm EDT Saturday 25 February 2017 (issued every 30 minutes, with the page automatically refreshed every 10 minutes)

About weather observations | Map of weather stations | Latest weather observations for VIC | Other Formats
Station Details ID: 085151 Name: YARRAM AIRPORT Lat: -38.56 Lon: 146.75 Height: 17.9 m
Data from the previous 72 hours. | See also: Recent months at Yarram Airport
Date/Time
EDT
Temp
°C
App
Temp
°C
Dew
Point
°C
Rel
Hum
%
Delta-T
°C
Wind Press
QNH
hPa
Press
MSL
hPa
Rain since
9am
mm
Dir  Spd
km/h
Gust
km/h
Spd
kts
Gust
kts
25/02:30pm 19.2 15.2 11.7 62 4.1 SSE 24 33 13 18 1023.2 1023.2 0.0
25/02:00pm 19.9 15.9 11.7 59 4.5 SSE 24 33 13 18 1023.6 1023.6 0.0
25/01:30pm 19.5 16.1 11.3 59 4.5 SSE 20 32 11 17 1023.8 1023.8 0.0
25/01:00pm 19.8 16.3 10.8 56 4.9 SSE 20 32 11 17 1024.0 1024.0 0.0
25/12:30pm 18.6 15.9 10.2 58 4.5 SSE 15 24 8 13 1024.3 1024.3 0.0
25/12:00pm 19.2 16.7 11.0 59 4.4 SE 15 20 8 11 1024.4 1024.4 0.0
25/11:30am 18.4 16.5 10.5 60 4.2 SSE 11 19 6 10 1024.7 1024.7 0.0
25/11:00am 18.3 17.0 9.9 58 4.4 NE 7 11 4 6 1024.9 1024.9 0.0
25/10:30am 17.8 16.3 10.7 63 3.8 SW 9 17 5 9 1024.9 1024.9 0.0
25/10:00am 17.1 15.3 10.9 67 3.3 WSW 11 17 6 9 1024.8 1024.8 0.0
25/09:30am 15.7 13.5 10.7 72 2.7 W 13 17 7 9 1024.9 1024.9 0.0
25/09:00am 14.0 12.6 11.0 82 1.6 W 9 13 5 7 1024.7 1024.7 0.0
25/08:30am 13.3 12.0 11.2 87 1.1 W 9 13 5 7 1024.7 1024.7 0.0
25/08:00am 12.0 10.9 10.7 92 0.7 WNW 7 9 4 5 1024.5 1024.5 0.0
25/07:30am 9.2 7.4 7.8 91 0.7 NW 7 9 4 5 1024.2 1024.2 0.0
25/07:00am 8.5 6.5 7.0 90 0.7 WNW 7 7 4 4 1024.1 1024.1 0.0
25/06:30am 9.4 6.8 7.8 90 0.8 NW 11 13 6 7 1024.1 1024.1 0.0
25/06:00am 9.8 6.9 8.1 89 0.8 NW 13 15 7 8 1023.8 1023.8 0.0
25/05:30am 10.2 7.7 8.3 88 0.9 WNW 11 13 6 7 1023.7 1023.7 0.0
25/05:00am 10.8 8.4 8.7 87 1.0 NW 11 13 6 7 1023.6 1023.6 0.0
25/04:30am 12.0 10.3 9.9 87 1.1 WNW 9 13 5 7 1023.7 1023.7 0.0
25/04:00am 12.1 10.1 10.2 88 1.0 WNW 11 13 6 7 1023.7 1023.7 0.0
25/03:30am 12.1 10.2 10.5 90 0.8 WNW 11 13 6 7 1023.9 1023.9 0.0
25/03:00am 11.4 8.9 9.8 90 0.8 WNW 13 15 7 8 1023.8 1023.8 0.0
25/02:30am 10.9 8.3 9.3 90 0.8 WNW 13 15 7 8 1023.9 1023.9 0.0
25/02:00am 10.2 7.7 8.3 88 0.9 WNW 11 13 6 7 1024.1 1024.1 0.0
25/01:30am 10.8 8.4 8.7 87 1.0 WNW 11 13 6 7 1024.1 1024.1 0.0
25/01:00am 11.3 8.7 9.2 87 1.0 WNW 13 15 7 8 1024.3 1024.3 0.0
25/12:30am 10.9 8.5 8.7 86 1.1 WNW 11 13 6 7 1024.4 1024.4 0.0
25/12:00am 11.1 8.4 9.0 87 1.0 WNW 13 15 7 8 1024.6 1024.6 0.0
 
Date/Time
EDT
Temp
°C
App
Temp
°C
Dew
Point
°C
Rel
Hum
%
Delta-T
°C
Wind Press
QNH
hPa
Press
MSL
hPa
Rain since
9am
mm
Dir  Spd
km/h
Gust
km/h
Spd
kts
Gust
kts
24/11:30pm 11.0 8.6 8.6 85 1.2 WNW 11 13 6 7 1024.7 1024.7 0.0
24/11:00pm 11.4 8.6 8.6 83 1.4 WNW 13 13 7 7 1024.9 1024.9 0.0
24/10:30pm 12.4 10.2 9.2 81 1.6 WNW 11 15 6 8 1025.1 1025.1 0.0
24/10:00pm 12.9 10.3 9.4 79 1.8 WNW 13 15 7 8 1025.1 1025.1 0.0
24/09:30pm 12.5 10.0 8.4 76 2.0 WNW 11 15 6 8 1025.0 1025.0 0.0
24/09:00pm 14.1 11.0 8.9 71 2.6 WSW 15 19 8 10 1024.7 1024.7 0.0
24/08:30pm 14.5 11.4 8.9 69 2.8 WSW 15 17 8 9 1024.3 1024.3 0.0
24/08:00pm 15.6 12.2 9.3 66 3.2 WSW 17 22 9 12 1024.2 1024.2 0.0
24/07:30pm 16.7 12.4 9.4 62 3.8 WSW 22 28 12 15 1024.0 1024.0 0.0
24/07:00pm 17.1 12.1 9.5 61 4.0 WSW 26 33 14 18 1023.9 1023.9 0.0
24/06:30pm 18.5 12.7 9.6 56 4.7 WSW 30 41 16 22 1023.9 1023.9 0.0
24/06:00pm 18.2 12.2 8.7 54 4.9 WSW 30 39 16 21 1023.8 1023.8 0.0
24/05:30pm 18.1 11.7 8.7 54 4.9 SW 32 43 17 23 1023.8 1023.8 0.0
24/05:00pm 17.6 11.3 10.9 65 3.6 SW 35 44 19 24 1023.8 1023.8 0.0
24/04:30pm 18.4 12.8 10.0 58 4.5 SW 30 41 16 22 1023.6 1023.6 0.0
24/04:00pm 18.0 13.0 9.6 58 4.4 WSW 26 35 14 19 1023.6 1023.6 0.0
24/03:30pm 17.6 11.8 9.5 59 4.2 SW 30 41 16 22 1023.8 1023.8 0.0
24/03:00pm 18.8 12.8 8.7 52 5.2 WSW 30 41 16 22 1023.7 1023.7 0.0
24/02:30pm 20.5 15.3 8.8 47 6.2 WSW 26 39 14 21 1023.7 1023.7 0.0
24/02:00pm 19.1 13.0 8.4 50 5.5 WSW 30 43 16 23 1023.9 1023.9 0.0
24/01:30pm 18.9 12.8 8.3 50 5.5 SW 30 41 16 22 1024.0 1024.0 0.0
24/01:00pm 18.5 12.8 8.5 52 5.1 SW 28 39 15 21 1023.9 1023.9 0.0
24/12:30pm 18.6 13.6 9.4 55 4.8 WSW 26 39 14 21 1024.1 1024.1 0.0
24/12:00pm 18.0 13.5 9.9 59 4.3 SW 24 30 13 16 1024.2 1024.2 0.0
24/11:30am 17.8 13.1 9.4 58 4.4 WSW 24 32 13 17 1024.2 1024.2 0.0
24/11:00am 17.7 13.0 9.1 57 4.5 WSW 24 30 13 16 1024.3 1024.3 0.0
24/10:30am 17.6 13.9 10.0 61 4.0 SW 20 32 11 17 1024.2 1024.2 0.0
24/10:00am 17.7 13.3 10.3 62 3.9 WSW 24 32 13 17 1024.0 1024.0 0.0
24/09:30am 17.1 12.6 10.2 64 3.7 WSW 24 33 13 18 1023.8 1023.8 0.0
24/09:00am 16.2 12.2 11.8 75 2.4 W 24 30 13 16 1023.7 1023.7 0.0
24/08:30am 15.7 11.7 11.9 78 2.1 WSW 24 32 13 17 1023.5 1023.5 0.0
24/08:00am 15.3 11.7 11.9 80 1.8 WSW 22 30 12 16 1023.0 1023.0 0.0
24/07:30am 15.0 12.0 12.1 83 1.6 WSW 19 24 10 13 1022.7 1022.7 0.0
24/07:00am 15.0 12.0 12.0 82 1.6 WSW 19 24 10 13 1022.6 1022.6 0.0
24/06:30am 14.9 11.7 11.9 82 1.6 WSW 20 24 11 13 1022.3 1022.3 0.0
24/06:00am 14.8 13.4 12.1 84 1.5 WSW 11 15 6 8 1022.1 1022.1 0.0
24/05:30am 14.8 13.1 12.3 85 1.4 W 13 19 7 10 1022.0 1022.0 0.0
24/05:00am 14.8 12.8 12.7 87 1.1 W 15 19 8 10 1021.9 1021.9 0.0
24/04:30am 14.7 12.9 13.2 91 0.8 WSW 15 20 8 11 1021.9 1021.9 0.0
24/04:00am 15.0 13.8 13.9 93 0.6 W 13 20 7 11 1022.0 1022.0 0.0
24/03:30am 14.9 12.9 13.8 93 0.6 WSW 17 22 9 12 1021.9 1021.9 0.0
24/03:00am 15.5 13.0 14.2 92 0.7 SW 20 26 11 14 1021.9 1021.9 0.0
24/02:30am 15.6 15.0 14.5 93 0.6 W 11 15 6 8 1021.9 1021.9 0.0
24/02:00am 15.7 15.1 14.6 93 0.6 W 11 13 6 7 1022.0 1022.0 0.0
24/01:30am 16.0 14.3 14.7 92 0.7 WSW 17 26 9 14 1022.3 1022.3 0.0
24/01:00am 16.2 15.2 14.6 90 0.9 WNW 13 15 7 8 1022.2 1022.2 0.0
24/12:30am 17.0 15.4 13.9 82 1.8 W 15 19 8 10 1022.1 1022.1 0.0
24/12:00am 17.0 15.7 13.7 81 1.9 W 13 17 7 9 1021.8 1021.8 0.0
 
Date/Time
EDT
Temp
°C
App
Temp
°C
Dew
Point
°C
Rel
Hum
%
Delta-T
°C
Wind Press
QNH
hPa
Press
MSL
hPa
Rain since
9am
mm
Dir  Spd
km/h
Gust
km/h
Spd
kts
Gust
kts
23/11:30pm 16.9 15.5 13.4 80 2.0 W 13 17 7 9 1021.9 1021.9 0.0
23/11:00pm 16.1 15.0 13.2 83 1.6 WNW 11 13 6 7 1021.8 1021.8 0.0
23/10:30pm 16.4 14.1 13.1 81 1.8 W 17 20 9 11 1021.6 1021.6 0.0
23/10:00pm 17.0 15.3 13.5 80 2.0 WSW 15 19 8 10 1021.5 1021.5 0.0
23/09:30pm 17.8 15.4 13.7 77 2.3 WSW 19 24 10 13 1021.5 1021.5 0.0
23/09:00pm 16.9 15.1 13.2 79 2.1 WSW 15 20 8 11 1021.3 1021.3 0.0
23/08:30pm 17.5 13.6 13.2 76 2.4 SW 26 33 14 18 1020.4 1020.4 0.0
23/08:00pm 18.2 14.9 12.9 71 3.0 SW 22 30 12 16 1019.8 1019.8 0.0
23/07:30pm 19.4 16.6 13.1 67 3.6 SW 20 30 11 16 1019.2 1019.2 0.0
23/07:00pm 20.7 16.5 13.6 64 4.1 SW 28 39 15 21 1018.7 1018.7 0.0
23/06:30pm 21.6 16.6 14.0 62 4.4 SW 33 43 18 23 1018.1 1018.1 0.0
23/06:00pm 22.6 16.7 13.7 57 5.2 SW 37 44 20 24 1017.4 1017.4 0.0
23/05:30pm 23.3 17.4 13.5 54 5.7 SW 37 46 20 25 1017.1 1017.1 0.0
23/05:00pm 23.6 18.1 13.5 53 5.9 SW 35 44 19 24 1016.7 1016.7 0.0
23/04:30pm 24.7 19.6 13.6 50 6.5 SW 33 46 18 25 1016.6 1016.6 0.0
23/04:00pm 24.8 18.7 13.0 47 6.8 WSW 37 44 20 24 1016.4 1016.4 0.0
23/03:30pm 25.5 20.0 13.7 48 6.9 WSW 35 46 19 25 1016.2 1016.2 0.0
23/03:00pm 25.8 20.5 14.3 49 6.8 SW 35 48 19 26 1016.1 1016.1 0.0
23/02:43pm 25.8 21.6 14.6 50 6.7 SW 30 48 16 26 1016.2 1016.2 0.0
23/02:30pm 26.3 22.6 13.8 46 7.4 WSW 26 41 14 22 1016.2 1016.2 0.0
23/02:00pm 25.7 21.2 12.5 44 7.6 WSW 28 39 15 21 1016.4 1016.4 0.0
23/01:30pm 25.8 21.4 13.0 45 7.5 W 28 41 15 22 1016.5 1016.5 0.0
23/01:00pm 25.5 21.5 13.0 46 7.3 W 26 35 14 19 1016.4 1016.4 0.0
23/12:31pm 24.9 20.1 12.8 47 7.0 W 30 48 16 26 1016.3 1016.3 0.0
23/12:30pm 25.4 20.4 13.3 47 7.1 WSW 32 48 17 26 1016.3 1016.3 0.0
23/12:00pm 24.3 20.1 12.3 47 6.9 W 26 35 14 19 1016.4 1016.4 0.0
23/11:30am 24.1 20.9 13.0 50 6.4 WSW 22 39 12 21 1016.4 1016.4 0.0
23/11:00am 23.7 20.5 13.0 51 6.2 W 22 33 12 18 1016.4 1016.4 0.0
23/10:30am 22.7 18.9 12.3 52 5.9 WNW 24 33 13 18 1016.3 1016.3 0.0
23/10:00am 22.3 17.7 12.3 53 5.7 WNW 28 37 15 20 1016.1 1016.1 0.0
23/09:30am 21.9 16.8 11.9 53 5.6 W 30 39 16 21 1015.8 1015.8 0.0
23/09:00am 21.2 18.0 11.8 55 5.2 W 20 28 11 15 1015.6 1015.6 0.0
23/08:30am 19.7 17.8 11.7 60 4.4 WNW 13 15 7 8 1015.3 1015.3 0.0
23/08:00am 18.3 16.3 11.6 65 3.7 W 13 15 7 8 1014.8 1014.8 0.0
23/07:30am 15.3 14.6 10.1 71 2.7 WNW 4 6 2 3 1014.2 1014.2 0.0
23/07:00am 16.1 14.6 10.6 70 2.9 W 9 13 5 7 1013.6 1013.6 0.0
23/06:30am 15.2 15.1 9.6 69 2.9 CALM 0 0 0 0 1013.0 1013.0 0.0
23/06:00am 17.0 14.7 10.6 66 3.4 W 13 19 7 10 1012.3 1012.3 0.0
23/05:30am 17.1 14.4 10.2 64 3.7 W 15 22 8 12 1012.1 1012.1 0.0
23/05:00am 16.9 14.9 10.3 65 3.5 W 11 17 6 9 1012.1 1012.1 0.0
23/04:30am 17.1 14.4 10.2 64 3.7 W 15 20 8 11 1011.7 1011.7 0.0
23/04:00am 17.2 14.8 10.1 63 3.8 W 13 17 7 9 1011.8 1011.8 0.0
23/03:30am 18.2 14.6 9.8 58 4.4 W 19 26 10 14 1011.7 1011.7 0.0
23/03:00am 19.5 14.2 9.7 53 5.2 W 28 39 15 21 1011.5 1011.5 0.0
23/02:30am 20.0 14.8 10.4 54 5.2 W 28 41 15 22 1011.2 1011.2 0.0
23/02:00am 20.6 15.3 11.2 55 5.2 W 30 41 16 22 1010.8 1010.8 0.0
23/01:30am 21.1 15.6 9.0 46 6.4 W 28 35 15 19 1010.0 1010.0 0.0
23/01:00am 23.7 18.8 10.0 42 7.5 NNE 26 33 14 18 1008.1 1008.1 0.0
23/12:49am 22.1 19.2 12.9 56 5.3 NNE 20 32 11 17 1008.3 1008.3 0.0
23/12:30am 16.8 14.9 11.9 73 2.7 ENE 13 17 7 9 1008.9 1008.9 0.0
23/12:00am 16.0 15.0 11.0 72 2.7 ESE 7 9 4 5 1009.5 1009.5 0.0
 
Date/Time
EDT
Temp
°C
App
Temp
°C
Dew
Point
°C
Rel
Hum
%
Delta-T
°C
Wind Press
QNH
hPa
Press
MSL
hPa
Rain since
9am
mm
Dir  Spd
km/h
Gust
km/h
Spd
kts
Gust
kts
22/11:30pm 18.2 17.0 11.5 65 3.7 ENE 9 13 5 7 1009.8 1009.8 0.0
22/11:00pm 17.8 16.5 11.4 66 3.5 NE 9 13 5 7 1010.2 1010.2 0.0
22/10:30pm 17.0 15.3 11.1 68 3.2 NNE 11 15 6 8 1010.4 1010.4 0.0
22/10:00pm 17.1 14.7 11.4 69 3.1 NNE 15 17 8 9 1010.7 1010.7 0.0
22/09:30pm 18.4 16.0 11.5 64 3.8 NNE 15 17 8 9 1011.0 1011.0 0.0
22/09:00pm 20.3 18.2 12.5 61 4.4 NE 15 20 8 11 1010.9 1010.9 0.0
22/08:30pm 20.5 18.4 12.5 60 4.5 NE 15 20 8 11 1011.1 1011.1 0.0
22/08:00pm 21.1 19.5 12.8 59 4.7 E 13 17 7 9 1011.1 1011.1 0.0
22/07:30pm 23.3 21.4 10.4 44 7.1 ENE 11 17 6 9 1011.1 1011.1 0.0
22/07:00pm 23.7 21.5 10.7 44 7.2 ENE 13 17 7 9 1011.0 1011.0 0.0
22/06:30pm 24.9 21.7 8.4 35 8.8 ENE 15 24 8 13 1011.1 1011.1 0.0
22/06:00pm 26.3 21.2 5.8 27 10.6 E 22 33 12 18 1010.6 1010.6 0.0
22/05:30pm 26.7 22.6 8.6 32 9.8 E 20 28 11 15 1010.9 1010.9 0.0
22/05:00pm 27.7 23.7 8.1 29 10.6 E 19 26 10 14 1011.3 1011.3 0.0
22/04:30pm 26.9 22.9 8.4 31 10.0 E 19 28 10 15 1011.5 1011.5 0.0
22/04:00pm 26.4 22.8 10.5 37 8.9 ENE 20 26 11 14 1011.9 1011.9 0.0
22/03:30pm 27.9 24.7 11.9 37 9.2 E 20 28 11 15 1012.5 1012.5 0.0

Other Formats:

Comma delimited format used in spreadsheet applications
http://www.bom.gov.au/fwo/IDV60801/IDV60801.95890.axf

JavaScript Object Notation format (JSON) in row-major order
http://www.bom.gov.au/fwo/IDV60801/IDV60801.95890.json